Time;durP1;ratioP1;P1;durP2;ratioP2;P2;SDS_P1;SDS_P2;PMS_P1;PMS_P2;Temp;Humidity;BMP_temperature;BMP_pressure;BME280_temperature;BME280_humidity;BME280_pressure;Samples;Min_cycle;Max_cycle;Signal;HPM_P1;HPM_P2
2022/04/24 00:01:51;;;;;;;4.03;3.80;;;;;;;10.28;57.08;99471.19;5083626;28;20254;-73
2022/04/24 00:04:17;;;;;;;4.37;4.07;;;;;;;10.29;56.96;99462.50;5081456;28;20193;-73
2022/04/24 00:06:46;;;;;;;4.17;3.47;;;;;;;10.25;57.50;99460.88;5092523;28;20202;-73
2022/04/24 00:09:13;;;;;;;4.57;4.17;;;;;;;10.24;57.13;99455.72;5101021;28;20231;-73
2022/04/24 00:11:41;;;;;;;4.40;4.10;;;;;;;10.19;57.53;99447.19;5100347;28;20219;-73
2022/04/24 00:14:10;;;;;;;4.87;4.57;;;;;;;10.15;57.57;99441.25;5099374;28;20287;-73
2022/04/24 00:16:37;;;;;;;4.33;3.97;;;;;;;10.12;57.23;99442.16;5101958;28;20203;-72
2022/04/24 00:19:04;;;;;;;4.53;4.23;;;;;;;10.09;57.71;99441.44;5103583;28;20206;-72
2022/04/24 00:21:30;;;;;;;4.13;3.73;;;;;;;10.01;57.62;99431.25;5102249;28;20633;-72
2022/04/24 00:23:57;;;;;;;6.23;4.07;;;;;;;10.01;57.76;99427.78;5101906;28;20225;-74
2022/04/24 00:26:24;;;;;;;3.77;3.50;;;;;;;9.96;58.24;99422.72;5103069;28;20195;-74
2022/04/24 00:28:52;;;;;;;4.37;4.07;;;;;;;9.90;58.58;99418.56;5102320;28;20264;-73
2022/04/24 00:31:18;;;;;;;4.13;3.83;;;;;;;9.84;58.85;99399.69;5101417;28;20327;-73
2022/04/24 00:33:44;;;;;;;3.43;3.23;;;;;;;9.82;59.01;99389.28;5098077;28;20551;-73
2022/04/24 00:36:11;;;;;;;4.23;3.93;;;;;;;9.78;58.58;99381.63;5102624;28;20196;-73
2022/04/24 00:38:38;;;;;;;4.80;4.33;;;;;;;9.69;59.20;99370.63;5065888;28;20253;-75
2022/04/24 00:41:04;;;;;;;4.40;4.00;;;;;;;9.60;59.98;99354.44;5100330;28;20269;-73
2022/04/24 00:43:31;;;;;;;4.00;3.70;;;;;;;9.49;59.99;99336.53;5101984;28;20536;-73
2022/04/24 00:46:13;;;;;;;4.47;4.03;;;;;;;9.45;60.28;99335.75;5103736;28;20668;-73
2022/04/24 00:48:40;;;;;;;4.10;3.70;;;;;;;9.34;60.70;99311.84;5101703;28;20227;-74
2022/04/24 00:51:07;;;;;;;4.40;3.87;;;;;;;9.30;61.18;99308.47;5098737;28;20227;-73
2022/04/24 00:53:33;;;;;;;4.07;3.83;;;;;;;9.31;61.04;99297.13;5101779;28;20191;-73
2022/04/24 00:56:00;;;;;;;4.20;3.90;;;;;;;9.32;60.90;99301.47;5102789;28;21639;-73
2022/04/24 00:58:27;;;;;;;4.00;3.70;;;;;;;9.30;60.47;99299.81;5098762;28;20248;-73
2022/04/24 01:00:53;;;;;;;4.13;3.83;;;;;;;9.13;61.66;99297.72;5101736;28;20226;-73
2022/04/24 01:03:21;;;;;;;4.27;3.97;;;;;;;9.06;62.10;99270.22;5102759;28;20235;-73
2022/04/24 01:05:48;;;;;;;4.83;4.53;;;;;;;9.04;61.63;99272.84;5098765;28;20200;-73
2022/04/24 01:08:14;;;;;;;4.60;4.20;;;;;;;9.03;62.23;99271.13;5101646;28;20219;-73
2022/04/24 01:10:42;;;;;;;4.40;3.93;;;;;;;8.95;61.68;99255.75;5103993;28;20212;-74
2022/04/24 01:13:08;;;;;;;4.50;4.10;;;;;;;8.93;62.26;99252.34;5101160;28;20200;-74
2022/04/24 01:15:35;;;;;;;3.80;3.50;;;;;;;8.95;62.70;99247.09;5101338;28;20198;-73
2022/04/24 01:18:02;;;;;;;4.17;3.77;;;;;;;8.86;62.84;99245.66;5102749;28;20240;-73
2022/04/24 01:20:29;;;;;;;4.70;4.17;;;;;;;8.81;62.88;99239.72;5100944;28;20769;-74
2022/04/24 01:22:56;;;;;;;4.60;3.73;;;;;;;8.85;62.00;99249.16;5101277;28;20210;-74
2022/04/24 01:25:23;;;;;;;4.17;3.77;;;;;;;8.84;62.34;99252.66;5102538;28;20198;-73
2022/04/24 01:27:49;;;;;;;4.20;3.80;;;;;;;8.80;62.07;99252.78;5100950;28;20220;-74
2022/04/24 01:30:15;;;;;;;3.80;3.50;;;;;;;8.81;62.72;99259.72;5100761;28;20612;-73
2022/04/24 01:32:42;;;;;;;3.87;3.57;;;;;;;8.83;62.22;99263.94;5102505;28;20210;-73
2022/04/24 01:35:08;;;;;;;4.13;3.80;;;;;;;8.81;62.32;99263.16;5100877;28;20203;-73
2022/04/24 01:37:36;;;;;;;3.97;3.67;;;;;;;8.83;62.01;99261.34;5101338;28;20199;-73
2022/04/24 01:40:03;;;;;;;4.13;3.83;;;;;;;8.86;61.79;99269.06;5096804;28;20200;-74
2022/04/24 01:42:29;;;;;;;3.97;3.67;;;;;;;8.88;61.98;99271.59;5091677;28;20224;-73
2022/04/24 01:44:56;;;;;;;3.83;3.53;;;;;;;8.85;61.81;99277.78;5091540;28;20281;-73
2022/04/24 01:47:22;;;;;;;3.87;3.57;;;;;;;8.85;61.73;99282.97;5091110;28;20208;-73
2022/04/24 01:49:48;;;;;;;3.73;3.43;;;;;;;8.85;61.57;99280.38;5091431;28;20253;-73
2022/04/24 01:52:15;;;;;;;3.83;3.53;;;;;;;8.80;61.63;99287.47;5090517;28;20232;-73
2022/04/24 01:54:43;;;;;;;3.90;3.60;;;;;;;8.86;61.22;99299.44;5091655;28;20211;-74
2022/04/24 01:57:09;;;;;;;3.80;3.50;;;;;;;8.78;62.16;99296.22;5091540;28;20212;-73
2022/04/24 01:59:35;;;;;;;4.00;3.70;;;;;;;8.79;61.55;99298.78;5091848;28;20281;-73
2022/04/24 02:02:02;;;;;;;3.40;3.20;;;;;;;8.79;61.25;99303.13;5091499;28;20284;-74
2022/04/24 02:04:28;;;;;;;3.67;3.37;;;;;;;8.83;61.09;99299.53;5091402;28;20208;-73
2022/04/24 02:06:55;;;;;;;3.40;3.10;;;;;;;8.74;61.15;99304.13;5091801;28;20208;-73
2022/04/24 02:09:21;;;;;;;3.73;3.37;;;;;;;8.78;61.37;99302.28;5091343;28;20224;-73
2022/04/24 02:11:49;;;;;;;3.30;3.10;;;;;;;8.77;60.64;99302.31;5091080;28;20306;-74
2022/04/24 02:14:15;;;;;;;4.20;3.90;;;;;;;8.76;61.70;99306.69;5093843;28;20200;-73
2022/04/24 02:16:42;;;;;;;3.63;3.43;;;;;;;8.70;61.89;99299.91;5095191;28;20693;-73
2022/04/24 02:19:08;;;;;;;3.63;3.30;;;;;;;8.64;62.19;99288.81;5095413;28;20203;-74
2022/04/24 02:21:35;;;;;;;4.47;4.07;;;;;;;8.63;61.73;99290.56;5095232;28;20282;-74
2022/04/24 02:24:01;;;;;;;4.23;3.83;;;;;;;8.60;61.62;99287.22;5094810;28;20269;-73
2022/04/24 02:26:27;;;;;;;3.87;3.57;;;;;;;8.57;61.99;99279.50;5094954;28;20211;-73
2022/04/24 02:28:55;;;;;;;3.60;3.30;;;;;;;8.57;61.75;99293.34;5095185;28;20235;-74
2022/04/24 02:31:21;;;;;;;4.13;3.73;;;;;;;8.57;61.43;99284.72;5094812;28;20297;-73
2022/04/24 02:33:48;;;;;;;3.43;3.13;;;;;;;8.52;61.85;99284.81;5094922;28;20299;-73
2022/04/24 02:36:14;;;;;;;2.90;2.70;;;;;;;8.49;61.65;99280.56;5094533;28;20257;-73
2022/04/24 02:38:41;;;;;;;3.73;3.43;;;;;;;8.45;62.25;99273.75;5086353;28;20248;-74
2022/04/24 02:41:07;;;;;;;4.20;3.57;;;;;;;8.41;62.63;99277.34;5094020;28;20228;-73
2022/04/24 02:43:34;;;;;;;3.57;3.27;;;;;;;8.41;62.34;99273.88;5094389;28;20679;-74
2022/04/24 02:46:01;;;;;;;4.57;3.20;;;;;;;8.41;62.48;99269.53;5094647;28;20204;-73
2022/04/24 02:48:28;;;;;;;4.33;4.00;;;;;;;8.37;62.41;99267.06;5094438;28;20269;-73
2022/04/24 02:50:54;;;;;;;3.77;3.50;;;;;;;8.32;62.97;99268.03;5094615;28;20713;-73
2022/04/24 02:53:21;;;;;;;4.97;3.47;;;;;;;8.26;63.27;99260.41;5094519;28;20211;-73
2022/04/24 02:55:47;;;;;;;4.00;3.70;;;;;;;8.28;63.59;99262.97;5094418;28;20261;-74
2022/04/24 02:58:14;;;;;;;3.90;3.60;;;;;;;8.28;62.90;99261.19;5094453;28;20206;-74
2022/04/24 03:00:43;;;;;;;4.43;3.70;;;;;;;8.30;62.32;99261.16;5094434;28;20268;-73
2022/04/24 03:03:12;;;;;;;4.27;3.87;;;;;;;8.30;62.82;99258.56;5094514;28;20269;-73
2022/04/24 03:05:38;;;;;;;3.80;3.50;;;;;;;8.28;62.84;99266.41;5094468;28;20261;-73
2022/04/24 03:08:05;;;;;;;7.47;4.23;;;;;;;8.24;63.37;99258.75;5094435;28;20206;-73
2022/04/24 03:10:32;;;;;;;4.13;3.83;;;;;;;8.22;62.71;99258.78;5094206;28;20774;-73
2022/04/24 03:12:59;;;;;;;4.40;4.10;;;;;;;8.15;63.16;99254.66;5094278;28;20212;-73
2022/04/24 03:15:25;;;;;;;5.17;4.13;;;;;;;8.12;63.21;99252.97;5093639;28;20611;-74
2022/04/24 03:17:54;;;;;;;5.40;3.43;;;;;;;8.09;63.79;99245.28;5094050;28;20665;-73
2022/04/24 03:20:23;;;;;;;4.77;4.37;;;;;;;8.04;63.95;99244.56;5094269;28;20208;-74
2022/04/24 03:22:49;;;;;;;5.07;4.23;;;;;;;8.00;64.26;99236.91;5094229;28;20254;-73
2022/04/24 03:25:16;;;;;;;4.37;3.60;;;;;;;8.00;64.42;99231.69;5092419;28;20211;-73
2022/04/24 03:27:42;;;;;;;5.80;3.87;;;;;;;7.94;64.20;99233.56;5094200;28;20200;-73
2022/04/24 03:30:10;;;;;;;4.67;4.27;;;;;;;7.89;63.90;99229.41;5093722;28;20372;-73
2022/04/24 03:32:37;;;;;;;4.50;4.10;;;;;;;7.85;64.18;99219.97;5093919;28;20275;-73
2022/04/24 03:35:05;;;;;;;4.33;3.93;;;;;;;7.84;64.57;99224.31;5093697;28;20212;-73
2022/04/24 03:37:33;;;;;;;4.40;4.03;;;;;;;7.81;64.76;99221.81;5093697;28;20285;-73
2022/04/24 03:40:00;;;;;;;4.00;3.70;;;;;;;7.78;64.67;99213.25;5093985;28;20249;-73
2022/04/24 03:42:26;;;;;;;4.33;3.93;;;;;;;7.72;64.66;99212.53;5092943;28;20606;-73
2022/04/24 03:44:54;;;;;;;5.60;3.97;;;;;;;7.73;64.36;99216.84;5093529;28;20222;-74
2022/04/24 03:47:21;;;;;;;5.03;3.93;;;;;;;7.69;65.62;99217.81;5093389;28;20207;-73
2022/04/24 03:49:47;;;;;;;4.03;3.73;;;;;;;7.61;65.60;99211.97;5093539;28;20641;-73
2022/04/24 03:52:14;;;;;;;4.20;3.80;;;;;;;7.55;64.76;99206.91;5093256;28;20247;-73
2022/04/24 03:54:41;;;;;;;4.20;3.80;;;;;;;7.55;65.63;99206.91;5093463;28;20276;-73
2022/04/24 03:57:08;;;;;;;3.87;3.57;;;;;;;7.50;65.82;99194.06;5093248;28;20207;-73
2022/04/24 03:59:35;;;;;;;4.77;4.40;;;;;;;7.49;65.87;99192.38;5093545;28;20204;-73
2022/04/24 04:02:02;;;;;;;4.43;4.10;;;;;;;7.47;65.20;99201.06;5093407;28;20313;-74
2022/04/24 04:04:29;;;;;;;6.53;4.10;;;;;;;7.33;66.58;99178.94;5092985;28;20222;-74
2022/04/24 04:06:55;;;;;;;4.80;3.60;;;;;;;7.36;66.39;99176.25;5093474;28;20211;-74
2022/04/24 04:09:22;;;;;;;3.97;3.67;;;;;;;7.36;66.37;99178.84;5093497;28;20227;-74
2022/04/24 04:11:50;;;;;;;4.00;3.40;;;;;;;7.36;65.85;99186.63;5093148;28;20280;-73
2022/04/24 04:14:16;;;;;;;4.13;3.70;;;;;;;7.34;65.94;99178.03;5093084;28;20253;-73
2022/04/24 04:16:43;;;;;;;3.60;3.20;;;;;;;7.35;65.98;99177.16;5092895;28;20207;-73
2022/04/24 04:19:09;;;;;;;4.60;4.20;;;;;;;7.29;66.32;99171.25;5093346;28;20200;-73
2022/04/24 04:21:36;;;;;;;4.47;4.17;;;;;;;7.29;66.11;99166.91;5093140;28;20228;-73
2022/04/24 04:24:02;;;;;;;4.20;3.87;;;;;;;7.30;66.73;99167.78;5092817;28;20204;-73
2022/04/24 04:26:29;;;;;;;4.13;3.83;;;;;;;7.33;66.71;99173.75;5092797;28;20211;-74
2022/04/24 04:28:57;;;;;;;3.73;3.43;;;;;;;7.37;66.60;99171.91;5092978;28;20231;-73
2022/04/24 04:31:23;;;;;;;4.17;3.77;;;;;;;7.39;66.08;99170.13;5092539;28;20736;-73
2022/04/24 04:33:50;;;;;;;3.73;3.43;;;;;;;7.42;67.19;99171.81;5092484;28;20206;-73
2022/04/24 04:36:17;;;;;;;5.87;4.07;;;;;;;7.43;66.00;99169.16;5092207;28;20211;-73
2022/04/24 04:38:43;;;;;;;3.83;3.40;;;;;;;7.46;66.17;99181.22;5092562;28;20214;-73
2022/04/24 04:41:10;;;;;;;4.67;3.93;;;;;;;7.45;65.92;99166.50;5092220;28;20281;-73
2022/04/24 04:43:37;;;;;;;3.77;3.47;;;;;;;7.45;66.79;99163.91;5092215;28;20195;-73
2022/04/24 04:46:05;;;;;;;3.97;3.57;;;;;;;7.50;66.41;99172.44;5092752;28;20240;-73
2022/04/24 04:48:31;;;;;;;4.07;3.77;;;;;;;7.49;66.48;99176.81;5092327;28;20256;-73
2022/04/24 04:50:58;;;;;;;4.00;3.70;;;;;;;7.52;66.79;99173.25;5091937;28;20279;-73
2022/04/24 04:53:24;;;;;;;5.43;4.07;;;;;;;7.54;65.83;99181.84;5092657;28;20214;-73
2022/04/24 04:55:52;;;;;;;4.63;4.17;;;;;;;7.60;66.30;99201.63;5092208;28;20237;-73
2022/04/24 04:58:18;;;;;;;3.90;3.60;;;;;;;7.63;66.52;99196.31;5092558;28;20215;-73
2022/04/24 05:00:45;;;;;;;5.03;3.70;;;;;;;7.64;66.44;99201.50;5092457;28;20227;-73
2022/04/24 05:03:12;;;;;;;3.93;3.63;;;;;;;7.63;66.51;99191.13;5092614;28;20204;-73
2022/04/24 05:05:39;;;;;;;3.87;3.57;;;;;;;7.64;66.26;99195.44;5091858;28;20211;-72
2022/04/24 05:08:06;;;;;;;4.23;3.93;;;;;;;7.67;66.04;99201.41;5092315;28;20203;-73
2022/04/24 05:10:32;;;;;;;4.50;3.80;;;;;;;7.70;67.14;99214.31;5092152;28;20577;-73
2022/04/24 05:12:58;;;;;;;4.20;3.80;;;;;;;7.73;66.40;99211.63;5092250;28;20249;-73
2022/04/24 05:15:25;;;;;;;3.63;3.33;;;;;;;7.74;66.44;99218.53;5091964;28;20252;-73
2022/04/24 05:17:52;;;;;;;3.67;3.37;;;;;;;7.75;66.20;99209.84;5091722;28;20695;-73
2022/04/24 05:20:20;;;;;;;3.67;3.47;;;;;;;7.76;66.92;99214.13;5092183;28;20204;-73
2022/04/24 05:22:46;;;;;;;3.80;3.60;;;;;;;7.80;66.28;99217.50;5092168;28;20211;-73
2022/04/24 05:25:14;;;;;;;4.23;3.30;;;;;;;7.83;65.94;99211.38;5091859;28;20234;-73
2022/04/24 05:27:41;;;;;;;3.93;3.63;;;;;;;7.83;66.08;99213.97;5092109;28;20547;-74
2022/04/24 05:30:09;;;;;;;4.40;4.00;;;;;;;7.83;66.03;99220.03;5091751;28;20277;-73
2022/04/24 05:32:40;;;;;;;3.80;3.37;;;;;;;7.83;66.16;99219.16;5091998;28;20204;-74
2022/04/24 05:35:07;;;;;;;3.73;3.43;;;;;;;7.81;66.66;99201.03;5091705;28;20198;-73
2022/04/24 05:37:35;;;;;;;4.07;3.77;;;;;;;7.84;66.15;99210.50;5092146;28;20203;-73
2022/04/24 05:40:02;;;;;;;4.17;3.77;;;;;;;7.91;66.31;99219.81;5091936;28;20202;-73
2022/04/24 05:42:28;;;;;;;3.47;3.27;;;;;;;7.95;66.06;99216.25;5091126;28;20224;-73
2022/04/24 05:44:59;;;;;;;3.87;3.57;;;;;;;8.02;65.93;99222.13;5091757;28;20282;-73
2022/04/24 05:47:25;;;;;;;4.10;3.70;;;;;;;8.05;65.89;99228.09;5091673;28;20216;-74
2022/04/24 05:49:52;;;;;;;4.23;3.60;;;;;;;8.09;66.38;99237.50;5095867;28;20222;-74
2022/04/24 05:52:18;;;;;;;5.43;3.83;;;;;;;8.14;65.79;99226.94;5064020;22;20290;-70
2022/04/24 05:54:46;;;;;;;3.77;3.47;;;;;;;8.14;65.64;99229.56;5035170;28;20208;-70
2022/04/24 05:57:12;;;;;;;3.90;3.60;;;;;;;8.14;65.47;99233.00;5035672;28;20217;-70
2022/04/24 05:59:39;;;;;;;4.80;4.17;;;;;;;8.17;65.59;99237.28;5035766;28;20206;-70
2022/04/24 06:02:05;;;;;;;4.13;3.67;;;;;;;8.22;65.85;99240.59;5035545;28;20241;-70
2022/04/24 06:04:32;;;;;;;5.33;4.00;;;;;;;8.25;65.89;99242.25;5039107;28;20668;-70
2022/04/24 06:06:58;;;;;;;3.83;3.53;;;;;;;8.30;64.82;99253.38;5035401;28;20205;-70
2022/04/24 06:09:25;;;;;;;3.97;3.33;;;;;;;8.31;65.44;99265.47;5035532;28;20229;-70
2022/04/24 06:11:58;;;;;;;4.30;4.00;;;;;;;8.31;65.45;99260.28;5035495;28;20717;-70
2022/04/24 06:14:24;;;;;;;4.27;3.77;;;;;;;8.36;65.74;99255.78;5035495;28;20629;-70
2022/04/24 06:16:50;;;;;;;4.00;3.70;;;;;;;8.44;64.76;99264.25;5036345;28;20213;-70
2022/04/24 06:19:17;;;;;;;3.73;3.43;;;;;;;8.46;65.40;99256.41;5035442;28;20276;-70
2022/04/24 06:21:43;;;;;;;3.60;3.30;;;;;;;8.48;64.86;99259.81;5034960;28;20234;-70
2022/04/24 06:24:10;;;;;;;3.73;3.43;;;;;;;8.49;65.50;99272.78;5034541;28;20213;-71
2022/04/24 06:26:36;;;;;;;4.43;3.57;;;;;;;8.58;64.97;99270.78;5034767;28;20267;-70
2022/04/24 06:29:04;;;;;;;4.30;3.90;;;;;;;8.61;65.07;99278.53;5035026;28;20706;-70
2022/04/24 06:31:30;;;;;;;3.57;3.27;;;;;;;8.57;65.09;99293.34;5034953;28;20229;-70
2022/04/24 06:33:57;;;;;;;3.90;3.60;;;;;;;8.58;64.94;99278.59;5037231;28;20288;-71
2022/04/24 06:36:23;;;;;;;4.43;3.50;;;;;;;8.58;65.31;99276.00;5036965;28;20673;-71
2022/04/24 06:38:50;;;;;;;4.17;3.87;;;;;;;8.68;65.59;99273.09;5034460;28;20209;-71
2022/04/24 06:41:16;;;;;;;4.23;3.60;;;;;;;8.72;66.38;99263.41;5034762;28;20288;-71
2022/04/24 06:43:42;;;;;;;3.77;3.57;;;;;;;8.79;64.47;99271.91;5034604;28;20213;-71
2022/04/24 06:46:10;;;;;;;4.73;3.93;;;;;;;8.82;64.24;99282.22;5034514;28;20737;-71
2022/04/24 06:48:37;;;;;;;4.00;3.70;;;;;;;8.85;64.06;99292.53;5034717;28;20202;-71
2022/04/24 06:51:03;;;;;;;4.87;3.43;;;;;;;8.92;64.51;99288.84;5034027;28;20315;-71
2022/04/24 06:53:30;;;;;;;3.73;3.43;;;;;;;8.98;65.12;99270.44;5034784;28;20460;-71
2022/04/24 06:55:57;;;;;;;3.80;3.50;;;;;;;9.05;64.74;99286.72;5034108;28;20209;-71
2022/04/24 06:58:25;;;;;;;3.73;3.43;;;;;;;9.12;63.90;99301.25;5034415;28;20210;-71
2022/04/24 07:00:52;;;;;;;3.87;3.57;;;;;;;9.14;63.97;99302.06;5034257;28;20226;-71
2022/04/24 07:03:21;;;;;;;3.93;3.47;;;;;;;9.13;63.46;99324.63;5034090;28;20209;-71
2022/04/24 07:05:48;;;;;;;5.07;3.70;;;;;;;9.07;64.28;99317.00;5039514;28;20739;-71
2022/04/24 07:08:15;;;;;;;5.30;4.23;;;;;;;9.12;63.86;99302.09;5033911;28;20692;-71
2022/04/24 07:10:42;;;;;;;3.83;3.53;;;;;;;9.19;63.72;99299.28;5034224;28;20280;-72
2022/04/24 07:13:08;;;;;;;4.40;4.00;;;;;;;9.15;64.12;99301.13;5034081;28;20258;-72
2022/04/24 07:15:38;;;;;;;4.07;3.77;;;;;;;9.16;63.12;99308.06;5033901;28;20667;-71
2022/04/24 07:18:05;;;;;;;4.37;3.97;;;;;;;9.22;62.88;99328.69;5034198;28;20233;-71
2022/04/24 07:20:33;;;;;;;4.30;3.93;;;;;;;9.31;63.55;99319.72;5033941;28;20279;-71
2022/04/24 07:23:01;;;;;;;4.07;3.67;;;;;;;9.37;63.14;99310.88;5033909;28;20260;-71
2022/04/24 07:25:32;;;;;;;4.07;3.77;;;;;;;9.49;63.45;99320.88;5033442;28;20209;-71
2022/04/24 07:27:59;;;;;;;4.70;4.23;;;;;;;9.50;63.04;99323.44;5033764;28;20206;-71
2022/04/24 07:30:25;;;;;;;4.20;3.80;;;;;;;9.56;62.48;99339.78;5033799;28;20226;-71
2022/04/24 07:32:53;;;;;;;4.30;3.90;;;;;;;9.52;63.05;99329.47;5033669;28;20214;-71
2022/04/24 07:35:22;;;;;;;4.83;4.27;;;;;;;9.62;62.25;99335.22;5038435;28;20205;-71
2022/04/24 07:37:50;;;;;;;4.50;4.10;;;;;;;9.68;61.92;99339.38;5033446;28;20202;-71
2022/04/24 07:40:19;;;;;;;3.90;3.57;;;;;;;9.73;62.17;99355.72;5033684;28;20267;-71
2022/04/24 07:42:50;;;;;;;3.73;3.43;;;;;;;9.83;61.65;99348.44;5033633;28;20598;-71
2022/04/24 07:45:20;;;;;;;5.10;3.97;;;;;;;9.88;61.60;99359.56;5033637;28;20195;-71
2022/04/24 07:47:47;;;;;;;4.40;4.00;;;;;;;9.98;61.96;99363.56;5033529;28;20210;-71
2022/04/24 07:50:15;;;;;;;4.13;3.73;;;;;;;10.05;61.71;99352.03;5033199;28;20238;-71
2022/04/24 07:52:42;;;;;;;4.00;3.70;;;;;;;10.14;61.15;99363.91;5033309;28;20213;-71
2022/04/24 07:55:12;;;;;;;5.33;3.77;;;;;;;10.21;61.46;99361.91;5033270;28;20264;-71
2022/04/24 07:57:39;;;;;;;4.37;3.97;;;;;;;10.25;61.49;99350.50;5033135;28;20206;-70
2022/04/24 08:00:06;;;;;;;4.00;3.70;;;;;;;10.30;61.06;99359.88;5033125;28;20202;-69
2022/04/24 08:02:33;;;;;;;4.63;4.23;;;;;;;10.31;62.27;99343.34;5032545;28;20612;-70
2022/04/24 08:04:59;;;;;;;4.13;3.83;;;;;;;10.38;61.68;99343.13;5037717;28;20268;-70
2022/04/24 08:07:25;;;;;;;4.73;4.20;;;;;;;10.43;60.71;99364.69;5032997;28;20201;-70
2022/04/24 08:09:52;;;;;;;4.20;3.80;;;;;;;10.45;60.74;99375.91;5032569;28;20206;-70
2022/04/24 08:12:20;;;;;;;4.93;4.07;;;;;;;10.51;61.10;99363.50;5032335;28;20232;-70
2022/04/24 08:14:46;;;;;;;5.47;4.27;;;;;;;10.60;61.56;99353.63;5032859;28;20295;-70
2022/04/24 08:17:12;;;;;;;4.40;4.00;;;;;;;10.68;61.17;99351.56;5032901;28;20225;-70
2022/04/24 08:19:39;;;;;;;4.50;4.10;;;;;;;10.67;59.68;99376.81;5032909;28;20260;-71
2022/04/24 08:22:05;;;;;;;4.53;4.10;;;;;;;10.70;60.24;99399.34;5032583;28;20234;-73
2022/04/24 08:24:32;;;;;;;4.97;4.67;;;;;;;10.73;60.36;99363.56;5032396;28;20612;-70
2022/04/24 08:26:58;;;;;;;4.63;4.23;;;;;;;10.78;60.56;99365.97;5032641;28;20207;-70
2022/04/24 08:29:26;;;;;;;4.23;3.93;;;;;;;10.86;60.71;99378.75;5032311;28;20215;-70
2022/04/24 08:31:52;;;;;;;4.20;3.90;;;;;;;10.93;59.96;99381.09;5032104;28;20234;-70
2022/04/24 08:34:19;;;;;;;4.50;4.10;;;;;;;11.01;60.25;99403.44;5033068;28;20268;-70
2022/04/24 08:36:45;;;;;;;5.37;4.63;;;;;;;11.07;59.66;99393.63;5032363;28;20280;-68
2022/04/24 08:39:12;;;;;;;4.57;4.17;;;;;;;11.07;59.55;99404.06;5032195;28;20198;-70
2022/04/24 08:41:41;;;;;;;4.87;4.37;;;;;;;11.11;59.82;99412.63;5031876;28;20292;-70
2022/04/24 08:44:09;;;;;;;4.73;4.33;;;;;;;11.17;59.74;99406.34;5020663;28;20202;-71
2022/04/24 08:46:37;;;;;;;4.57;4.27;;;;;;;11.26;59.25;99412.06;5029395;28;20667;-70
2022/04/24 08:49:05;;;;;;;5.20;4.40;;;;;;;11.27;59.79;99420.75;5031991;28;20271;-70
2022/04/24 08:51:33;;;;;;;4.70;4.37;;;;;;;11.31;59.31;99412.72;5031203;28;20594;-70
2022/04/24 08:54:01;;;;;;;5.07;4.67;;;;;;;11.31;58.95;99430.16;5022101;28;20299;-70
2022/04/24 08:56:28;;;;;;;4.70;4.30;;;;;;;11.33;59.32;99426.56;5022697;28;20647;-70
2022/04/24 08:58:54;;;;;;;4.43;4.07;;;;;;;11.40;60.40;99406.31;5021128;28;20214;-70
2022/04/24 09:01:21;;;;;;;6.20;4.60;;;;;;;11.50;59.63;99414.63;5021678;28;20217;-70
2022/04/24 09:03:49;;;;;;;5.17;4.67;;;;;;;11.55;59.60;99415.28;5023742;28;20209;-70
2022/04/24 09:06:22;;;;;;;5.77;5.27;;;;;;;11.64;58.33;99437.63;5029271;28;20206;-70
2022/04/24 09:08:49;;;;;;;4.97;4.43;;;;;;;11.69;58.68;99441.75;5030910;28;20582;-70
2022/04/24 09:11:17;;;;;;;5.30;4.80;;;;;;;11.73;58.76;99448.56;5031439;28;20696;-70
2022/04/24 09:16:35;;;;;;;4.90;4.50;;;;;;;11.91;58.28;99453.97;5032425;28;20260;-70
2022/04/24 09:19:03;;;;;;;5.43;4.93;;;;;;;11.98;58.79;99437.13;5032987;28;20211;-70
2022/04/24 09:21:29;;;;;;;8.83;5.60;;;;;;;12.11;57.83;99445.34;5034005;28;20626;-70
2022/04/24 09:23:59;;;;;;;5.80;5.30;;;;;;;12.19;56.73;99490.34;5031902;28;20218;-70
2022/04/24 09:26:25;;;;;;;5.80;5.27;;;;;;;12.14;56.01;99515.00;5031616;28;20201;-70
2022/04/24 09:28:52;;;;;;;5.90;5.40;;;;;;;12.12;56.55;99521.13;5022816;28;20673;-70
2022/04/24 09:31:18;;;;;;;5.97;5.37;;;;;;;12.21;58.95;99478.06;5031256;28;20217;-70
2022/04/24 09:33:44;;;;;;;6.67;5.50;;;;;;;12.31;56.75;99484.63;5031890;28;20610;-70
2022/04/24 09:36:13;;;;;;;6.20;5.50;;;;;;;12.39;56.11;99513.09;5033217;28;20206;-70
2022/04/24 09:38:41;;;;;;;6.00;5.40;;;;;;;12.45;56.57;99525.06;5031598;28;20200;-70
2022/04/24 09:41:15;;;;;;;6.33;5.83;;;;;;;12.51;56.67;99522.19;5031203;28;20687;-70
2022/04/24 09:43:42;;;;;;;5.57;5.03;;;;;;;12.62;56.95;99509.50;5031583;28;20186;-70
2022/04/24 09:46:09;;;;;;;5.67;5.20;;;;;;;12.70;56.13;99536.22;5019977;28;20565;-70
2022/04/24 09:48:35;;;;;;;5.47;5.07;;;;;;;12.76;56.29;99529.00;5019663;28;20258;-70
2022/04/24 09:51:02;;;;;;;6.57;6.17;;;;;;;12.80;55.59;99538.44;5021493;28;20231;-70
2022/04/24 09:53:31;;;;;;;6.20;5.60;;;;;;;12.84;56.00;99533.03;5031378;28;20229;-70
2022/04/24 09:56:00;;;;;;;6.17;5.40;;;;;;;12.90;55.14;99576.41;5031189;28;20260;-70
2022/04/24 09:58:26;;;;;;;5.90;5.50;;;;;;;13.02;55.46;99573.28;5031267;28;20245;-70
2022/04/24 10:00:53;;;;;;;6.57;5.73;;;;;;;13.19;55.65;99574.31;5031412;28;20228;-70
2022/04/24 10:03:21;;;;;;;5.63;5.23;;;;;;;13.37;55.58;99563.03;5031218;28;20596;-71
2022/04/24 10:05:49;;;;;;;5.77;5.13;;;;;;;13.54;54.28;99583.28;5027151;28;20204;-71
2022/04/24 10:08:17;;;;;;;6.43;5.43;;;;;;;13.72;54.90;99591.25;5022368;28;20203;-70
2022/04/24 10:10:44;;;;;;;7.15;6.55;;;;;;;13.86;52.38;99631.66;5022259;28;20455;-71
2022/04/24 10:13:13;;;;;;;6.50;6.00;;;;;;;14.02;52.92;99665.91;5020885;28;20197;-70
2022/04/24 10:15:46;;;;;;;7.43;6.83;;;;;;;14.10;54.27;99620.94;5021764;28;20205;-73
2022/04/24 10:18:30;;;;;;;6.63;6.13;;;;;;;14.28;51.73;99680.44;5022649;28;20207;-73
2022/04/24 10:21:31;;;;;;;6.17;5.67;;;;;;;14.41;52.34;99693.88;5031064;28;20279;-72
2022/04/24 10:24:08;;;;;;;6.65;6.15;;;;;;;14.73;51.69;99688.03;5029578;28;20441;-71
2022/04/24 10:26:36;;;;;;;6.93;6.23;;;;;;;14.78;51.78;99717.56;5030699;28;20283;-71
2022/04/24 10:29:06;;;;;;;7.07;6.47;;;;;;;14.91;50.45;99736.22;5030693;28;20200;-73
2022/04/24 10:31:43;;;;;;;6.00;5.60;;;;;;;15.05;50.64;99737.25;5030526;28;20229;-73
2022/04/24 10:34:11;;;;;;;6.43;5.93;;;;;;;15.06;50.67;99746.84;5035528;28;20434;-70
2022/04/24 10:36:38;;;;;;;5.90;5.50;;;;;;;15.12;50.42;99752.72;5034376;28;20265;-71
2022/04/24 10:39:15;;;;;;;6.07;5.57;;;;;;;15.14;50.37;99750.88;5034087;28;20212;-70
2022/04/24 10:41:53;;;;;;;6.20;5.70;;;;;;;15.22;50.21;99770.63;5036693;28;20286;-69
2022/04/24 10:44:20;;;;;;;6.97;6.40;;;;;;;15.13;50.09;99776.31;5033808;28;20255;-69
2022/04/24 10:46:48;;;;;;;6.73;6.17;;;;;;;15.17;49.28;99787.53;5034123;28;20209;-70
2022/04/24 10:49:16;;;;;;;6.47;5.93;;;;;;;15.15;49.50;99786.75;5033660;28;20253;-69
2022/04/24 10:51:46;;;;;;;6.53;5.93;;;;;;;15.10;50.29;99779.06;5033773;28;20303;-70
2022/04/24 10:54:19;;;;;;;6.20;5.80;;;;;;;15.05;50.07;99765.31;5033727;28;20239;-71
2022/04/24 10:56:49;;;;;;;5.83;5.40;;;;;;;15.01;50.86;99746.22;5034181;28;20198;-71
2022/04/24 10:59:18;;;;;;;6.60;6.00;;;;;;;15.00;50.01;99770.78;5033787;28;20212;-72
2022/04/24 11:01:48;;;;;;;7.20;6.70;;;;;;;15.01;51.54;99738.34;5033806;28;20232;-72
2022/04/24 11:04:15;;;;;;;6.40;5.90;;;;;;;15.07;51.38;99705.66;5033880;28;20208;-72
2022/04/24 11:06:53;;;;;;;7.17;6.53;;;;;;;15.16;51.72;99693.81;5033776;28;20627;-72
2022/04/24 11:09:20;;;;;;;7.47;6.70;;;;;;;15.26;50.11;99702.94;5033529;28;20635;-73
2022/04/24 11:11:49;;;;;;;6.70;6.10;;;;;;;15.20;50.82;99732.16;5037142;28;20715;-72
2022/04/24 11:14:19;;;;;;;6.77;6.27;;;;;;;15.31;50.73;99706.19;5033367;28;20209;-73
2022/04/24 11:16:48;;;;;;;6.87;6.30;;;;;;;15.41;50.31;99717.94;5033580;28;20216;-73
2022/04/24 11:19:21;;;;;;;7.83;6.90;;;;;;;15.54;49.97;99751.50;5033819;28;20296;-73
2022/04/24 11:21:47;;;;;;;6.77;6.27;;;;;;;15.62;50.85;99734.44;5033447;28;20226;-73
2022/04/24 11:24:18;;;;;;;6.97;6.33;;;;;;;15.80;49.96;99724.75;5033436;28;20214;-73
2022/04/24 11:26:48;;;;;;;7.88;7.07;;;;;;;16.07;48.89;99761.97;5033001;28;20438;-70
2022/04/24 11:29:15;;;;;;;7.63;7.00;;;;;;;16.29;48.19;99781.88;5034022;28;20260;-70
2022/04/24 11:31:48;;;;;;;6.90;6.30;;;;;;;17.14;47.55;99806.28;5033547;28;20702;-70
2022/04/24 11:34:18;;;;;;;7.10;6.50;;;;;;;18.61;43.93;99897.16;5033370;28;20209;-71
2022/04/24 11:36:45;;;;;;;7.10;6.60;;;;;;;20.08;40.74;100053.00;5032449;28;20212;-70
2022/04/24 11:39:12;;;;;;;6.77;6.17;;;;;;;21.41;37.58;100202.50;5033500;28;20210;-70
2022/04/24 11:41:39;;;;;;;7.03;6.53;;;;;;;22.33;35.61;100314.94;5036535;28;20221;-70
2022/04/24 11:52:18;;;;;;;6.77;6.27;;;;;;;25.11;32.21;100502.25;5073815;22;20248;-81